Endeavour — VNJC — position and weather

sailwx.info

Track history (hours):
 
Tides and Currents Weather Stations Pressure Air Temp Water Temp Dewpoint Dewpoint Depression Visibility Wind Speed Wind Dir Waves Ship Positions

Endeavour (Australia)

Ship's website: http://www.anmm.gov.au/

Last reported at 2019-Feb-17 17:00 UTC. Time now 2019-Feb-17 17:10 UTC.
Position S 40°35' E 150°27'.

Length 44 m; draft 3.9 m.

Type: Sailing vessel. MMSI: 503094000.

Date/timePositionNaut miles runAvg speedWind from/ knotsBaromVisibWave heightAir tempDewpointWater temp
2019-Feb-17 17:00S 40°35' E 150°27'1 1.6
2019-Feb-17 16:15S 40°36' E 150°26'0 1.7
2019-Feb-17 16:00S 40°36' E 150°25'1 2.0
2019-Feb-17 15:30S 40°37' E 150°24'1 2.0
2019-Feb-17 14:54S 40°38' E 150°23'1 2.5
2019-Feb-17 14:28S 40°38' E 150°21'2 2.6
2019-Feb-17 13:43S 40°39' E 150°19'2 3.4
2019-Feb-17 13:15S 40°39' E 150°17'2 3.6
2019-Feb-17 12:46S 40°40' E 150°15'3 2.8
2019-Feb-17 11:39S 40°40' E 150°11'  
2019-Feb-14 09:29S 43°17' E 147°56'13 3.6
2019-Feb-14 05:43S 43°14' E 147°38'1 4.8
2019-Feb-14 05:30S 43°13' E 147°37'7 4.3
2019-Feb-14 03:48S 43°08' E 147°30'  
Track history (hours):
 
Tides and Currents Weather Stations Pressure Air Temp Water Temp Dewpoint Dewpoint Depression Visibility Wind Speed Wind Dir Waves Ship Positions

Endeavour (Australia)

Ship's website: http://www.anmm.gov.au/

Last reported at 2019-Feb-17 17:00 UTC. Time now 2019-Feb-17 17:10 UTC.
Position S 40°35' E 150°27'.

Length 44 m; draft 3.9 m.

Type: Sailing vessel. MMSI: 503094000.

Date/timePositionNaut miles runAvg speedWind from/ knotsBaromVisibWave heightAir tempDewpointWater temp
2019-Feb-17 17:00S 40°35' E 150°27'1 1.6
2019-Feb-17 16:15S 40°36' E 150°26'0 1.7
2019-Feb-17 16:00S 40°36' E 150°25'1 2.0
2019-Feb-17 15:30S 40°37' E 150°24'1 2.0
2019-Feb-17 14:54S 40°38' E 150°23'1 2.5
2019-Feb-17 14:28S 40°38' E 150°21'2 2.6
2019-Feb-17 13:43S 40°39' E 150°19'2 3.4
2019-Feb-17 13:15S 40°39' E 150°17'2 3.6
2019-Feb-17 12:46S 40°40' E 150°15'3 2.8
2019-Feb-17 11:39S 40°40' E 150°11'  
2019-Feb-14 09:29S 43°17' E 147°56'13 3.6
2019-Feb-14 05:43S 43°14' E 147°38'1 4.8
2019-Feb-14 05:30S 43°13' E 147°37'7 4.3
2019-Feb-14 03:48S 43°08' E 147°30'  

Dump ship's entire track history